sensor_id;sensor_type;location;lat;lon;timestamp;pressure;altitude;pressure_sealevel;temperature;humidity
53689;BME280;39583;54.682;30.662;2023-09-19T14:25:10;99191.97;;;21.52;49.85
53689;BME280;39583;54.682;30.662;2023-09-19T14:27:38;99181.88;;;21.47;50.35
53689;BME280;39583;54.682;30.662;2023-09-19T14:30:06;99207.69;;;21.60;50.66
53689;BME280;39583;54.682;30.662;2023-09-19T14:32:34;99202.81;;;21.57;50.60
53689;BME280;39583;54.682;30.662;2023-09-19T14:35:03;99197.22;;;21.48;50.39
53689;BME280;39583;54.682;30.662;2023-09-19T14:37:31;99179.06;;;21.34;50.48
53689;BME280;39583;54.682;30.662;2023-09-19T14:39:59;99191.66;;;21.35;50.26
53689;BME280;39583;54.682;30.662;2023-09-19T14:42:26;99197.75;;;21.32;50.37
53689;BME280;39583;54.682;30.662;2023-09-19T14:44:54;99199.44;;;21.28;50.45
53689;BME280;39583;54.682;30.662;2023-09-19T14:47:21;99192.56;;;21.30;50.42
53689;BME280;39583;54.682;30.662;2023-09-19T14:49:48;99167.31;;;21.14;50.24
53689;BME280;39583;54.682;30.662;2023-09-19T14:52:16;99183.66;;;21.19;50.78
53689;BME280;39583;54.682;30.662;2023-09-19T14:54:43;99192.69;;;21.20;50.62
53689;BME280;39583;54.682;30.662;2023-09-19T14:57:11;99187.88;;;21.12;50.86
53689;BME280;39583;54.682;30.662;2023-09-19T14:59:40;99191.34;;;20.99;51.33
53689;BME280;39583;54.682;30.662;2023-09-19T15:02:08;99185.19;;;20.88;51.52
53689;BME280;39583;54.682;30.662;2023-09-19T15:04:36;99165.34;;;20.77;51.73
53689;BME280;39583;54.682;30.662;2023-09-19T15:07:04;99181.19;;;20.80;51.70
53689;BME280;39583;54.682;30.662;2023-09-19T15:09:32;99174.22;;;20.69;51.93
53689;BME280;39583;54.682;30.662;2023-09-19T15:12:01;99181.50;;;20.55;52.18
53689;BME280;39583;54.682;30.662;2023-09-19T15:14:28;99161.00;;;20.28;52.62
53689;BME280;39583;54.682;30.662;2023-09-19T15:16:56;99165.50;;;20.19;53.05
53689;BME280;39583;54.682;30.662;2023-09-19T15:19:24;99167.75;;;20.12;53.45
53689;BME280;39583;54.682;30.662;2023-09-19T15:21:51;99168.66;;;20.02;53.82
53689;BME280;39583;54.682;30.662;2023-09-19T15:24:19;99150.31;;;19.79;54.18
53689;BME280;39583;54.682;30.662;2023-09-19T15:26:47;99160.47;;;19.73;54.41
53689;BME280;39583;54.682;30.662;2023-09-19T15:29:14;99166.28;;;19.67;54.92
53689;BME280;39583;54.682;30.662;2023-09-19T15:31:43;99152.00;;;19.41;55.17
53689;BME280;39583;54.682;30.662;2023-09-19T15:34:10;99165.66;;;19.36;55.74
53689;BME280;39583;54.682;30.662;2023-09-19T15:36:41;99169.31;;;19.21;56.01
53689;BME280;39583;54.682;30.662;2023-09-19T15:39:09;99172.13;;;19.11;56.18
53689;BME280;39583;54.682;30.662;2023-09-19T15:41:45;99183.66;;;19.03;56.52
53689;BME280;39583;54.682;30.662;2023-09-19T15:44:15;99175.22;;;18.94;56.79
53689;BME280;39583;54.682;30.662;2023-09-19T15:46:44;99175.81;;;18.86;56.96
53689;BME280;39583;54.682;30.662;2023-09-19T15:49:15;99179.94;;;18.78;57.27
53689;BME280;39583;54.682;30.662;2023-09-19T15:51:42;99161.19;;;18.56;57.48
53689;BME280;39583;54.682;30.662;2023-09-19T15:54:13;99177.81;;;18.60;58.09
53689;BME280;39583;54.682;30.662;2023-09-19T15:56:45;99179.22;;;18.52;58.02
53689;BME280;39583;54.682;30.662;2023-09-19T15:59:13;99177.59;;;18.46;58.47
53689;BME280;39583;54.682;30.662;2023-09-19T16:01:43;99175.47;;;18.38;58.87
53689;BME280;39583;54.682;30.662;2023-09-19T16:04:12;99175.72;;;18.32;58.83
53689;BME280;39583;54.682;30.662;2023-09-19T16:06:40;99171.41;;;18.20;59.36
53689;BME280;39583;54.682;30.662;2023-09-19T16:09:09;99171.69;;;18.09;59.74
53689;BME280;39583;54.682;30.662;2023-09-19T16:11:37;99166.03;;;18.00;59.93
53689;BME280;39583;54.682;30.662;2023-09-19T16:14:05;99167.66;;;17.91;60.18
53689;BME280;39583;54.682;30.662;2023-09-19T16:16:37;99164.41;;;17.89;60.43
53689;BME280;39583;54.682;30.662;2023-09-19T16:19:05;99167.66;;;17.81;60.62
53689;BME280;39583;54.682;30.662;2023-09-19T16:21:38;99165.78;;;17.71;60.81
53689;BME280;39583;54.682;30.662;2023-09-19T16:24:08;99165.75;;;17.66;61.21
53689;BME280;39583;54.682;30.662;2023-09-19T16:26:38;99160.31;;;17.61;61.59
53689;BME280;39583;54.682;30.662;2023-09-19T16:29:06;99165.19;;;17.54;61.78
53689;BME280;39583;54.682;30.662;2023-09-19T16:31:34;99163.59;;;17.48;62.13
53689;BME280;39583;54.682;30.662;2023-09-19T16:34:02;99161.41;;;17.39;62.39
53689;BME280;39583;54.682;30.662;2023-09-19T16:36:30;99167.38;;;17.31;62.59
53689;BME280;39583;54.682;30.662;2023-09-19T16:38:59;99168.47;;;17.20;63.12
53689;BME280;39583;54.682;30.662;2023-09-19T16:41:27;99172.53;;;17.13;63.23
53689;BME280;39583;54.682;30.662;2023-09-19T16:43:56;99157.81;;;16.98;63.69
53689;BME280;39583;54.682;30.662;2023-09-19T16:46:25;99159.41;;;16.89;63.80
53689;BME280;39583;54.682;30.662;2023-09-19T16:48:52;99163.75;;;16.90;64.35
53689;BME280;39583;54.682;30.662;2023-09-19T16:51:31;99168.94;;;16.87;64.47
53689;BME280;39583;54.682;30.662;2023-09-19T16:54:00;99162.38;;;16.77;64.72
53689;BME280;39583;54.682;30.662;2023-09-19T16:56:29;99167.53;;;16.74;64.84
53689;BME280;39583;54.682;30.662;2023-09-19T16:59:00;99167.53;;;16.69;64.87
53689;BME280;39583;54.682;30.662;2023-09-19T17:01:29;99168.53;;;16.63;65.12
53689;BME280;39583;54.682;30.662;2023-09-19T17:03:59;99171.53;;;16.61;65.38
53689;BME280;39583;54.682;30.662;2023-09-19T17:06:30;99177.25;;;16.60;65.44
53689;BME280;39583;54.682;30.662;2023-09-19T17:08:58;99173.44;;;16.56;65.41
53689;BME280;39583;54.682;30.662;2023-09-19T17:11:25;99168.50;;;16.52;65.64
53689;BME280;39583;54.682;30.662;2023-09-19T17:13:53;99168.78;;;16.51;65.62
53689;BME280;39583;54.682;30.662;2023-09-19T17:16:21;99172.31;;;16.51;65.69
53689;BME280;39583;54.682;30.662;2023-09-19T17:18:54;99157.34;;;16.44;65.87
53689;BME280;39583;54.682;30.662;2023-09-19T17:21:24;99170.69;;;16.50;65.75
53689;BME280;39583;54.682;30.662;2023-09-19T17:23:53;99173.38;;;16.50;65.75
53689;BME280;39583;54.682;30.662;2023-09-19T17:26:21;99176.09;;;16.45;65.91
53689;BME280;39583;54.682;30.662;2023-09-19T17:28:52;99177.19;;;16.44;65.68
53689;BME280;39583;54.682;30.662;2023-09-19T17:31:22;99178.28;;;16.43;65.77
53689;BME280;39583;54.682;30.662;2023-09-19T17:33:53;99172.25;;;16.36;65.80
53689;BME280;39583;54.682;30.662;2023-09-19T17:36:23;99175.78;;;16.37;66.08
53689;BME280;39583;54.682;30.662;2023-09-19T17:38:55;99176.31;;;16.34;65.98
53689;BME280;39583;54.682;30.662;2023-09-19T17:41:26;99175.22;;;16.30;65.87
53689;BME280;39583;54.682;30.662;2023-09-19T17:43:56;99177.94;;;16.30;66.02
53689;BME280;39583;54.682;30.662;2023-09-19T17:46:25;99183.88;;;16.27;65.93
53689;BME280;39583;54.682;30.662;2023-09-19T17:48:58;99186.03;;;16.25;65.80
53689;BME280;39583;54.682;30.662;2023-09-19T17:51:27;99188.72;;;16.19;66.08
53689;BME280;39583;54.682;30.662;2023-09-19T17:53:55;99186.22;;;16.13;66.21
53689;BME280;39583;54.682;30.662;2023-09-19T17:56:28;99182.41;;;16.09;66.15
53689;BME280;39583;54.682;30.662;2023-09-19T17:58:57;99190.28;;;16.05;66.01
53689;BME280;39583;54.682;30.662;2023-09-19T18:01:27;99193.53;;;16.02;66.29
53689;BME280;39583;54.682;30.662;2023-09-19T18:03:56;99179.91;;;15.97;65.98
53689;BME280;39583;54.682;30.662;2023-09-19T18:06:27;99184.50;;;15.91;66.32
53689;BME280;39583;54.682;30.662;2023-09-19T18:08:55;99185.84;;;15.89;66.17
53689;BME280;39583;54.682;30.662;2023-09-19T18:11:24;99171.13;;;15.85;66.30
53689;BME280;39583;54.682;30.662;2023-09-19T18:13:57;99182.53;;;15.82;66.50
53689;BME280;39583;54.682;30.662;2023-09-19T18:16:26;99183.59;;;15.81;66.43
53689;BME280;39583;54.682;30.662;2023-09-19T18:19:01;99170.31;;;15.84;66.13
53689;BME280;39583;54.682;30.662;2023-09-19T18:21:32;99182.53;;;15.87;66.14
53689;BME280;39583;54.682;30.662;2023-09-19T18:24:00;99176.84;;;15.88;66.14
53689;BME280;39583;54.682;30.662;2023-09-19T18:26:32;99181.78;;;15.91;66.10
53689;BME280;39583;54.682;30.662;2023-09-19T18:29:00;99181.78;;;15.97;66.09
53689;BME280;39583;54.682;30.662;2023-09-19T18:31:28;99180.97;;;15.96;66.04
53689;BME280;39583;54.682;30.662;2023-09-19T18:33:56;99184.50;;;15.91;66.30
53689;BME280;39583;54.682;30.662;2023-09-19T18:36:24;99181.69;;;15.81;66.59
53689;BME280;39583;54.682;30.662;2023-09-19T18:38:51;99186.50;;;15.69;66.83
